createdAt,value
2023-02-22T00:01:19.107Z,92.16
2023-02-22T00:03:52.154Z,92.23
2023-02-22T00:06:25.026Z,92.10
2023-02-22T00:08:55.779Z,92.11
2023-02-22T00:11:24.373Z,92.16
2023-02-22T00:13:52.698Z,92.11
2023-02-22T00:16:23.793Z,92.21
2023-02-22T00:18:52.335Z,92.20
2023-02-22T00:21:21.947Z,92.16
2023-02-22T00:23:51.288Z,92.49
2023-02-22T00:26:23.586Z,92.31
2023-02-22T00:28:54.441Z,92.21
2023-02-22T00:31:24.320Z,92.40
2023-02-22T00:33:52.809Z,92.04
2023-02-22T00:36:21.100Z,92.26
2023-02-22T00:38:49.357Z,92.11
2023-02-22T00:41:17.993Z,92.20
2023-02-22T00:43:48.911Z,92.28
2023-02-22T00:46:17.482Z,92.67
2023-02-22T00:48:45.947Z,92.42
2023-02-22T00:51:14.509Z,92.06
2023-02-22T00:53:43.047Z,92.51
2023-02-22T00:56:11.583Z,92.20
2023-02-22T00:58:39.818Z,92.69
2023-02-22T01:01:09.538Z,92.38
2023-02-22T01:03:41.463Z,92.34
2023-02-22T01:06:09.896Z,92.26
2023-02-22T01:08:38.174Z,92.20
2023-02-22T01:11:06.668Z,92.18
2023-02-22T01:13:35.549Z,92.54
2023-02-22T01:16:03.812Z,92.45
2023-02-22T01:18:33.613Z,92.40
2023-02-22T01:21:01.855Z,91.84
2023-02-22T01:23:30.155Z,92.38
2023-02-22T01:25:58.920Z,92.18
2023-02-22T01:28:27.270Z,92.20
2023-02-22T01:30:56.784Z,92.48
2023-02-22T01:33:26.104Z,92.17
2023-02-22T01:35:55.756Z,92.32
2023-02-22T01:38:24.025Z,92.01
2023-02-22T01:40:53.061Z,92.46
2023-02-22T01:43:25.290Z,92.40
2023-02-22T01:46:02.644Z,92.67
2023-02-22T01:48:42.858Z,92.42
2023-02-22T01:51:16.800Z,92.64
2023-02-22T01:53:51.485Z,92.56
2023-02-22T01:56:21.276Z,92.68
2023-02-22T01:58:55.283Z,92.50
2023-02-22T02:01:26.015Z,92.61
2023-02-22T02:03:59.835Z,93.11
2023-02-22T02:06:34.935Z,92.32
2023-02-22T02:09:11.862Z,92.35
2023-02-22T02:11:41.582Z,92.76
2023-02-22T02:14:12.172Z,92.55
2023-02-22T02:16:43.358Z,92.36
2023-02-22T02:19:20.400Z,92.67
2023-02-22T02:22:31.545Z,92.69
2023-02-22T02:25:41.180Z,92.79
2023-02-22T02:28:52.036Z,92.64
2023-02-22T02:31:53.214Z,92.30
2023-02-22T02:34:30.552Z,92.47
2023-02-22T02:37:10.143Z,92.16
2023-02-22T02:39:44.962Z,92.48
2023-02-22T02:42:19.701Z,92.39
2023-02-22T02:44:56.913Z,92.89
2023-02-22T02:47:30.111Z,92.98
2023-02-22T02:50:06.893Z,92.44
2023-02-22T02:52:37.055Z,92.53
2023-02-22T02:55:08.476Z,92.20
2023-02-22T02:57:36.781Z,92.71
2023-02-22T03:00:22.382Z,92.73
2023-02-22T03:03:08.783Z,92.52
2023-02-22T03:05:59.534Z,92.71
2023-02-22T03:08:36.341Z,92.28
2023-02-22T03:11:15.242Z,92.24
2023-02-22T03:13:55.673Z,92.67
2023-02-22T03:16:36.053Z,92.42
2023-02-22T03:19:13.737Z,92.30
2023-02-22T03:21:52.681Z,92.89
2023-02-22T03:24:26.990Z,92.15
2023-02-22T03:27:02.930Z,92.39
2023-02-22T03:29:35.577Z,92.87
2023-02-22T03:32:09.535Z,92.67
2023-02-22T03:34:44.116Z,92.59
2023-02-22T03:37:16.338Z,92.56
2023-02-22T03:39:46.360Z,92.59
2023-02-22T03:42:20.023Z,92.47
2023-02-22T03:44:50.319Z,92.91
2023-02-22T03:47:29.320Z,92.68
2023-02-22T03:50:07.855Z,92.41
2023-02-22T03:52:36.993Z,92.43
2023-02-22T03:55:11.150Z,92.82
2023-02-22T03:57:41.720Z,92.53
2023-02-22T04:00:15.631Z,92.78
2023-02-22T04:02:44.029Z,92.58
2023-02-22T04:05:14.938Z,92.34
2023-02-22T04:07:43.825Z,92.70
2023-02-22T04:10:14.881Z,92.79
2023-02-22T04:12:43.122Z,92.58
2023-02-22T04:15:17.795Z,92.22
2023-02-22T04:17:46.213Z,92.37
2023-02-22T04:20:19.948Z,92.37
2023-02-22T04:22:48.472Z,92.82
2023-02-22T04:25:17.524Z,92.71
2023-02-22T04:27:45.952Z,92.77
2023-02-22T04:30:15.046Z,92.63
2023-02-22T04:32:43.333Z,92.31
2023-02-22T04:35:11.752Z,92.88
2023-02-22T04:37:41.631Z,92.62
2023-02-22T04:40:11.634Z,92.54
2023-02-22T04:42:40.756Z,92.38
2023-02-22T04:45:10.931Z,92.58
2023-02-22T04:47:39.542Z,92.98
2023-02-22T04:50:10.268Z,93.15
2023-02-22T04:52:39.955Z,92.86
2023-02-22T04:55:09.971Z,93.00
2023-02-22T04:57:38.249Z,92.60
2023-02-22T05:00:10.228Z,92.78
2023-02-22T05:02:52.885Z,92.86
2023-02-22T05:05:22.884Z,92.92
2023-02-22T05:07:52.604Z,92.54
2023-02-22T05:10:21.630Z,92.52
2023-02-22T05:12:50.049Z,93.14
2023-02-22T05:15:21.465Z,92.81
2023-02-22T05:17:49.794Z,92.57
2023-02-22T05:20:24.329Z,92.39
2023-02-22T05:22:53.962Z,92.44
2023-02-22T05:25:22.363Z,92.56
2023-02-22T05:27:54.883Z,92.81
2023-02-22T05:30:25.517Z,92.50
2023-02-22T05:32:54.177Z,92.60
2023-02-22T05:35:25.428Z,92.53
2023-02-22T05:37:55.247Z,92.91
2023-02-22T05:40:26.532Z,92.50
2023-02-22T05:42:56.771Z,92.22
2023-02-22T05:45:28.157Z,92.71
2023-02-22T05:47:56.940Z,92.86
2023-02-22T05:50:26.352Z,92.77
2023-02-22T05:52:56.901Z,92.84
2023-02-22T05:55:26.036Z,92.67
2023-02-22T05:57:54.951Z,92.22
2023-02-22T06:00:29.994Z,92.08
2023-02-22T06:02:59.616Z,92.65
2023-02-22T06:05:29.152Z,92.41
2023-02-22T06:08:00.135Z,92.44
2023-02-22T06:10:29.524Z,91.96
2023-02-22T06:12:59.235Z,92.20
2023-02-22T06:15:28.955Z,91.93
2023-02-22T06:17:58.874Z,92.10
2023-02-22T06:20:29.595Z,91.99
2023-02-22T06:22:59.898Z,91.73
2023-02-22T06:25:31.930Z,92.09
2023-02-22T06:28:01.391Z,91.86
2023-02-22T06:30:31.473Z,92.22
2023-02-22T06:32:59.734Z,91.93
2023-02-22T06:35:28.243Z,91.56
2023-02-22T06:37:57.928Z,91.28
2023-02-22T06:40:29.498Z,91.45
2023-02-22T06:42:58.447Z,91.29
2023-02-22T06:45:27.483Z,91.18
2023-02-22T06:47:56.285Z,91.47
2023-02-22T06:50:28.762Z,91.03
2023-02-22T06:52:59.295Z,91.17
2023-02-22T06:55:30.525Z,91.05
2023-02-22T06:57:59.432Z,91.02
2023-02-22T07:00:30.594Z,91.08
2023-02-22T07:03:00.318Z,90.85
2023-02-22T07:05:30.250Z,90.38
2023-02-22T07:08:06.613Z,90.54
2023-02-22T07:10:36.912Z,90.38
2023-02-22T07:13:07.557Z,90.27
2023-02-22T07:15:37.340Z,89.41
2023-02-22T07:18:06.093Z,89.35
2023-02-22T07:20:34.957Z,89.30
2023-02-22T07:23:05.064Z,89.11
2023-02-22T07:25:33.452Z,89.06
2023-02-22T07:28:01.970Z,89.35
2023-02-22T07:30:34.117Z,89.48
2023-02-22T07:33:05.379Z,88.65
2023-02-22T07:35:36.631Z,89.02
2023-02-22T07:38:08.134Z,88.30
2023-02-22T07:40:37.228Z,88.45
2023-02-22T07:43:15.021Z,88.29
2023-02-22T07:45:43.445Z,88.36
2023-02-22T07:48:13.995Z,87.77
2023-02-22T07:50:43.342Z,87.89
2023-02-22T07:53:18.099Z,87.91
2023-02-22T07:55:47.717Z,87.24
2023-02-22T07:58:17.211Z,87.19
2023-02-22T08:00:48.440Z,87.60
2023-02-22T08:03:20.690Z,87.06
2023-02-22T08:05:51.578Z,86.71
2023-02-22T08:08:21.565Z,86.60
2023-02-22T08:10:51.480Z,86.43
2023-02-22T08:13:22.212Z,86.36
2023-02-22T08:15:54.118Z,85.80
2023-02-22T08:18:24.282Z,85.84
2023-02-22T08:20:53.694Z,86.12
2023-02-22T08:23:26.976Z,85.28
2023-02-22T08:25:56.064Z,85.57
2023-02-22T08:28:25.964Z,85.38
2023-02-22T08:30:54.595Z,84.95
2023-02-22T08:33:23.503Z,85.02
2023-02-22T08:35:52.186Z,84.97
2023-02-22T08:38:25.348Z,84.74
2023-02-22T08:40:53.881Z,84.66
2023-02-22T08:43:23.790Z,84.42
2023-02-22T08:45:52.983Z,83.95
2023-02-22T08:48:22.825Z,83.78
2023-02-22T08:50:51.195Z,83.65
2023-02-22T08:53:20.001Z,83.47
2023-02-22T08:55:50.910Z,83.35
2023-02-22T08:58:19.297Z,83.10
2023-02-22T09:00:47.538Z,83.07
2023-02-22T09:03:16.590Z,83.20
2023-02-22T09:05:46.003Z,82.94
2023-02-22T09:08:14.657Z,83.14
2023-02-22T09:10:43.104Z,82.83
2023-02-22T09:13:13.282Z,82.52
2023-02-22T09:15:41.699Z,82.51
2023-02-22T09:18:14.844Z,82.32
2023-02-22T09:20:43.315Z,81.85
2023-02-22T09:23:11.970Z,81.77
2023-02-22T09:25:41.151Z,81.58
2023-02-22T09:28:09.636Z,81.49
2023-02-22T09:30:39.571Z,81.22
2023-02-22T09:33:12.175Z,80.93
2023-02-22T09:35:45.668Z,81.09
2023-02-22T09:38:16.641Z,81.13
2023-02-22T09:40:50.436Z,80.98
2023-02-22T09:43:40.616Z,80.98
2023-02-22T09:46:24.447Z,80.76
2023-02-22T09:49:06.283Z,80.43
2023-02-22T09:51:41.406Z,80.63
2023-02-22T09:54:21.063Z,80.31
2023-02-22T09:56:51.793Z,80.25
2023-02-22T09:59:28.134Z,80.45
2023-02-22T10:02:06.705Z,80.40
2023-02-22T10:04:44.495Z,80.05
2023-02-22T10:07:19.562Z,79.81
2023-02-22T10:09:50.190Z,79.98
2023-02-22T10:12:30.744Z,79.86
2023-02-22T10:15:28.504Z,79.29
2023-02-22T10:18:19.407Z,79.71
2023-02-22T10:20:55.850Z,79.52
2023-02-22T10:23:34.194Z,79.46
2023-02-22T10:26:17.061Z,79.58
2023-02-22T10:28:55.318Z,79.50
2023-02-22T10:31:29.050Z,79.10
2023-02-22T10:34:02.834Z,79.37
2023-02-22T10:36:31.083Z,79.39
2023-02-22T10:39:02.213Z,79.54
2023-02-22T10:41:33.559Z,79.29
2023-02-22T10:44:04.052Z,79.23
2023-02-22T10:46:34.742Z,78.96
2023-02-22T10:49:08.318Z,79.07
2023-02-22T10:51:37.360Z,78.71
2023-02-22T10:54:28.113Z,78.84
2023-02-22T10:56:58.551Z,79.30
2023-02-22T10:59:34.095Z,78.93
2023-02-22T11:02:15.041Z,79.32
2023-02-22T11:04:50.835Z,79.37
2023-02-22T11:07:27.335Z,79.17
2023-02-22T11:09:58.117Z,79.21
2023-02-22T11:12:33.083Z,79.38
2023-02-22T11:15:29.592Z,79.44
2023-02-22T11:18:01.884Z,79.08
2023-02-22T11:20:38.534Z,79.24
2023-02-22T11:23:08.224Z,78.94
2023-02-22T11:25:39.646Z,78.92
2023-02-22T11:28:14.992Z,78.45
2023-02-22T11:30:45.425Z,78.64
2023-02-22T11:33:23.633Z,78.52
2023-02-22T11:35:55.848Z,78.88
2023-02-22T11:38:26.750Z,78.66
2023-02-22T11:41:17.786Z,78.60
2023-02-22T11:43:50.627Z,78.33
2023-02-22T11:46:21.267Z,78.84
2023-02-22T11:48:59.550Z,78.57
2023-02-22T11:51:45.956Z,77.84
2023-02-22T11:54:35.993Z,77.84
2023-02-22T11:57:22.302Z,77.63
2023-02-22T12:00:16.020Z,78.24
2023-02-22T12:03:11.712Z,78.24
2023-02-22T12:06:08.316Z,78.23
2023-02-22T12:08:55.182Z,78.17
2023-02-22T12:11:30.180Z,77.67
2023-02-22T12:14:22.575Z,78.00
2023-02-22T12:17:13.852Z,78.00
2023-02-22T12:19:45.491Z,78.40
2023-02-22T12:22:21.372Z,78.26
2023-02-22T12:25:08.955Z,78.31
2023-02-22T12:27:44.855Z,78.58
2023-02-22T12:30:23.621Z,78.45
2023-02-22T12:32:55.254Z,78.61
2023-02-22T12:35:27.483Z,78.54
2023-02-22T12:38:05.843Z,78.41
2023-02-22T12:40:45.112Z,78.98
2023-02-22T12:43:20.747Z,78.93
2023-02-22T12:45:54.228Z,79.03
2023-02-22T12:48:34.133Z,78.76
2023-02-22T12:51:17.484Z,78.30
2023-02-22T12:53:57.266Z,78.41
2023-02-22T12:56:33.859Z,78.36
2023-02-22T12:59:12.916Z,78.39
2023-02-22T13:01:45.569Z,77.99
2023-02-22T13:04:20.848Z,77.45
2023-02-22T13:07:20.047Z,77.22
2023-02-22T13:10:18.780Z,77.38
2023-02-22T13:12:57.389Z,77.28
2023-02-22T13:15:32.910Z,77.64
2023-02-22T13:18:11.887Z,77.20
2023-02-22T13:20:46.275Z,77.14
2023-02-22T13:23:29.260Z,77.08
2023-02-22T13:26:08.105Z,77.29
2023-02-22T13:28:44.626Z,77.50
2023-02-22T13:31:35.941Z,77.55
2023-02-22T13:34:36.036Z,77.69
2023-02-22T13:37:25.180Z,77.80
2023-02-22T13:40:32.558Z,77.40
2023-02-22T13:43:40.309Z,77.91
2023-02-22T13:46:41.146Z,77.73
2023-02-22T13:49:25.756Z,77.47
2023-02-22T13:51:56.656Z,77.67
2023-02-22T13:54:31.315Z,77.22
2023-02-22T13:56:59.683Z,77.13
2023-02-22T13:59:36.412Z,76.99
2023-02-22T14:02:08.066Z,77.09
2023-02-22T14:04:40.648Z,76.72
2023-02-22T14:07:59.922Z,77.39
2023-02-22T14:10:46.353Z,77.11
2023-02-22T14:13:17.144Z,76.67
2023-02-22T14:16:24.404Z,76.26
2023-02-22T14:19:06.566Z,77.09
2023-02-22T14:21:36.339Z,76.23
2023-02-22T14:24:11.561Z,76.44
2023-02-22T14:26:41.552Z,76.05
2023-02-22T14:29:19.172Z,76.45
2023-02-22T14:32:08.255Z,76.23
2023-02-22T14:34:53.929Z,76.33
2023-02-22T14:37:25.611Z,77.01
2023-02-22T14:40:02.241Z,76.58
2023-02-22T14:42:34.996Z,77.25
2023-02-22T14:45:17.169Z,76.77
2023-02-22T14:48:01.017Z,77.34
2023-02-22T14:50:44.120Z,77.46
2023-02-22T14:53:25.349Z,77.21
2023-02-22T14:55:59.865Z,76.90
2023-02-22T14:58:37.647Z,77.42
2023-02-22T15:01:31.213Z,77.22
2023-02-22T15:04:20.783Z,77.54
2023-02-22T15:06:49.779Z,77.60
2023-02-22T15:09:25.028Z,77.88
2023-02-22T15:11:58.443Z,77.70
2023-02-22T15:14:27.690Z,77.78
2023-02-22T15:17:01.458Z,77.91
2023-02-22T15:19:35.073Z,78.60
2023-02-22T15:22:09.213Z,78.54
2023-02-22T15:24:39.225Z,78.46
2023-02-22T15:27:14.163Z,78.50
2023-02-22T15:29:45.534Z,78.89
2023-02-22T15:32:22.259Z,78.75
2023-02-22T15:34:51.981Z,79.10
2023-02-22T15:37:25.420Z,79.12
2023-02-22T15:39:59.272Z,79.20
2023-02-22T15:42:30.542Z,79.11
2023-02-22T15:44:59.249Z,79.26
2023-02-22T15:47:31.987Z,79.55
2023-02-22T15:50:23.920Z,79.44
2023-02-22T15:52:59.078Z,79.76
2023-02-22T15:55:30.938Z,79.21
2023-02-22T15:58:03.126Z,79.62
2023-02-22T16:00:37.137Z,79.54
2023-02-22T16:03:09.517Z,79.84
2023-02-22T16:05:45.214Z,80.00
2023-02-22T16:08:23.245Z,80.05
2023-02-22T16:11:01.271Z,79.60
2023-02-22T16:13:34.561Z,80.12
2023-02-22T16:16:06.320Z,80.30
2023-02-22T16:18:36.842Z,80.57
2023-02-22T16:21:11.977Z,80.45
2023-02-22T16:23:48.855Z,80.53
2023-02-22T16:26:28.705Z,80.54
2023-02-22T16:28:59.424Z,80.84
2023-02-22T16:31:33.671Z,80.71
2023-02-22T16:34:07.123Z,80.73
2023-02-22T16:36:45.035Z,81.20
2023-02-22T16:39:27.192Z,81.16
2023-02-22T16:41:58.358Z,81.31
2023-02-22T16:44:27.926Z,81.46
2023-02-22T16:46:58.323Z,81.55
2023-02-22T16:49:28.716Z,81.71
2023-02-22T16:52:01.741Z,81.75
2023-02-22T16:54:38.259Z,81.86
2023-02-22T16:57:07.046Z,82.04
2023-02-22T16:59:40.412Z,82.07
2023-02-22T17:02:13.324Z,82.24
2023-02-22T17:04:41.549Z,82.29
2023-02-22T17:07:11.223Z,82.40
2023-02-22T17:09:39.772Z,82.45
2023-02-22T17:12:09.643Z,82.06
2023-02-22T17:14:37.931Z,82.45
2023-02-22T17:17:06.339Z,82.75
2023-02-22T17:19:36.742Z,82.65
2023-02-22T17:22:09.213Z,82.69
2023-02-22T17:24:39.315Z,82.96
2023-02-22T17:27:07.695Z,82.91
2023-02-22T17:29:36.222Z,82.88
2023-02-22T17:32:04.783Z,83.26
2023-02-22T17:34:33.193Z,83.40
2023-02-22T17:37:01.572Z,83.49
2023-02-22T17:39:31.080Z,83.81
2023-02-22T17:42:00.884Z,83.50
2023-02-22T17:44:30.180Z,83.97
2023-02-22T17:46:58.529Z,84.24
2023-02-22T17:49:27.060Z,84.21
2023-02-22T17:51:55.832Z,84.50
2023-02-22T17:54:24.647Z,84.21
2023-02-22T17:56:52.979Z,84.28
2023-02-22T17:59:22.700Z,84.89
2023-02-22T18:01:52.734Z,84.96
2023-02-22T18:04:21.247Z,84.99
2023-02-22T18:06:49.648Z,84.87
2023-02-22T18:09:20.283Z,85.10
2023-02-22T18:11:48.688Z,85.25
2023-02-22T18:14:16.973Z,85.31
2023-02-22T18:16:48.397Z,85.87
2023-02-22T18:19:20.460Z,85.45
2023-02-22T18:21:50.696Z,85.72
2023-02-22T18:24:18.963Z,85.51
2023-02-22T18:26:47.584Z,85.70
2023-02-22T18:29:16.030Z,85.70
2023-02-22T18:31:45.437Z,85.81
2023-02-22T18:34:15.964Z,85.78
2023-02-22T18:36:44.229Z,86.25
2023-02-22T18:39:12.987Z,85.88
2023-02-22T18:41:41.311Z,85.96
2023-02-22T18:44:11.146Z,85.91
2023-02-22T18:46:39.734Z,85.98
2023-02-22T18:49:08.322Z,85.85
2023-02-22T18:51:39.925Z,85.90
2023-02-22T18:54:08.563Z,85.64
2023-02-22T18:56:37.002Z,86.01
2023-02-22T18:59:05.667Z,85.95
2023-02-22T19:01:38.799Z,86.02
2023-02-22T19:04:11.956Z,86.16
2023-02-22T19:06:43.260Z,85.99
2023-02-22T19:09:11.518Z,86.12
2023-02-22T19:11:44.662Z,85.81
2023-02-22T19:14:13.600Z,86.29
2023-02-22T19:16:46.399Z,86.02
2023-02-22T19:19:16.834Z,86.42
2023-02-22T19:21:46.496Z,86.11
2023-02-22T19:24:18.859Z,86.38
2023-02-22T19:26:50.685Z,86.50
2023-02-22T19:29:22.050Z,86.43
2023-02-22T19:31:51.457Z,86.66
2023-02-22T19:34:24.616Z,86.39
2023-02-22T19:36:54.379Z,86.53
2023-02-22T19:41:52.500Z,86.82
2023-02-22T19:44:20.821Z,86.70
2023-02-22T19:46:49.219Z,86.89
2023-02-22T19:49:17.818Z,86.82
2023-02-22T19:51:46.171Z,87.19
2023-02-22T19:54:21.439Z,87.03
2023-02-22T19:56:51.832Z,87.39
2023-02-22T19:59:23.011Z,87.52
2023-02-22T20:01:54.842Z,87.24
2023-02-22T20:04:23.619Z,87.56
2023-02-22T20:06:54.987Z,87.00
2023-02-22T20:09:29.884Z,87.22
2023-02-22T20:11:58.382Z,87.38
2023-02-22T20:14:30.516Z,87.17
2023-02-22T20:16:59.762Z,87.84
2023-02-22T20:19:28.775Z,87.71
2023-02-22T20:21:57.656Z,87.83
2023-02-22T20:24:27.664Z,87.64
2023-02-22T20:26:58.321Z,88.15
2023-02-22T20:29:30.456Z,87.83
2023-02-22T20:32:00.135Z,87.87
2023-02-22T20:34:31.462Z,88.23
2023-02-22T20:36:59.993Z,88.15
2023-02-22T20:39:30.309Z,88.25
2023-02-22T20:42:00.394Z,87.96
2023-02-22T20:44:28.702Z,88.29
2023-02-22T20:46:57.082Z,88.05
2023-02-22T20:49:27.237Z,88.63
2023-02-22T20:51:55.540Z,88.88
2023-02-22T20:54:23.906Z,88.77
2023-02-22T20:56:53.890Z,88.67
2023-02-22T20:59:22.845Z,88.80
2023-02-22T21:01:53.107Z,88.66
2023-02-22T21:04:23.180Z,88.53
2023-02-22T21:06:51.976Z,88.63
2023-02-22T21:09:22.070Z,88.71
2023-02-22T21:11:50.481Z,88.53
2023-02-22T21:14:20.513Z,88.50
2023-02-22T21:16:53.296Z,89.23
2023-02-22T21:19:26.443Z,88.79
2023-02-22T21:22:01.200Z,89.20
2023-02-22T21:24:30.895Z,88.72
2023-02-22T21:26:59.418Z,89.21
2023-02-22T21:29:30.051Z,89.35
2023-02-22T21:31:58.638Z,89.19
2023-02-22T21:34:27.246Z,88.81
2023-02-22T21:36:55.726Z,88.58
2023-02-22T21:39:28.470Z,89.39
2023-02-22T21:42:00.537Z,89.07
2023-02-22T21:44:33.740Z,88.86
2023-02-22T21:47:02.038Z,89.10
2023-02-22T21:49:30.536Z,88.96
2023-02-22T21:51:59.095Z,89.10
2023-02-22T21:54:28.464Z,89.20
2023-02-22T21:56:56.884Z,88.73
2023-02-22T21:59:25.713Z,89.57
2023-02-22T22:01:57.103Z,89.17
2023-02-22T22:04:29.502Z,89.37
2023-02-22T22:06:59.912Z,89.29
2023-02-22T22:09:33.117Z,88.96
2023-02-22T22:12:05.130Z,89.21
2023-02-22T22:14:35.742Z,89.69
2023-02-22T22:17:09.317Z,89.27
2023-02-22T22:19:42.884Z,89.09
2023-02-22T22:22:13.029Z,88.68
2023-02-22T22:24:45.871Z,89.24
2023-02-22T22:27:14.146Z,89.06
2023-02-22T22:29:43.471Z,89.57
2023-02-22T22:32:13.740Z,89.05
2023-02-22T22:34:43.573Z,89.39
2023-02-22T22:37:13.369Z,88.93
2023-02-22T22:39:42.540Z,89.50
2023-02-22T22:42:11.482Z,89.13
2023-02-22T22:44:42.004Z,89.78
2023-02-22T22:47:13.321Z,89.73
2023-02-22T22:49:42.584Z,89.53
2023-02-22T22:52:13.991Z,89.37
2023-02-22T22:54:43.262Z,88.81
2023-02-22T22:57:12.962Z,89.20
2023-02-22T22:59:41.426Z,88.80
2023-02-22T23:02:12.878Z,89.73
2023-02-22T23:04:41.134Z,89.42
2023-02-22T23:07:09.471Z,89.19
2023-02-22T23:09:39.398Z,89.42
2023-02-22T23:12:17.678Z,88.78
2023-02-22T23:14:47.436Z,89.08
2023-02-22T23:17:31.323Z,89.24
2023-02-22T23:19:59.883Z,88.72
2023-02-22T23:22:28.484Z,88.91
2023-02-22T23:24:59.899Z,88.59
2023-02-22T23:27:28.401Z,89.15
2023-02-22T23:29:56.789Z,89.13
2023-02-22T23:32:27.804Z,89.28
2023-02-22T23:34:56.340Z,89.06
2023-02-22T23:37:25.068Z,89.38
2023-02-22T23:39:54.357Z,88.86
2023-02-22T23:42:24.412Z,89.88
2023-02-22T23:44:53.873Z,89.34
2023-02-22T23:47:22.252Z,89.21
2023-02-22T23:49:51.940Z,88.93
2023-02-22T23:52:24.295Z,89.12
2023-02-22T23:54:54.054Z,89.05
2023-02-22T23:57:25.972Z,89.04
2023-02-22T23:59:54.337Z,89.47
